Terminal Aerodrome Forecast
Issued by NWS

Current Version | Previous Version | Graphics & Text | Print | Product List | Glossary On
Versions: 1 2 3 4 5 6 7 8 9 10 11 12 13 14 15 16 17 18 19 20 21 22 23 24 25 26
000
FTUS41 KRLX 221739
TAFCKB
TAF
KCKB 221739Z 2218/2318 24007KT P6SM VCSH OVC025
     FM221900 24008G16KT P6SM VCTS BKN070CB
     FM230000 20005KT P6SM BKN045
     FM230200 22003KT P6SM SHRA VCTS BKN015CB
     FM230500 25003KT 5SM BR BKN015
     FM230900 28003KT 5SM BR BKN007
     FM231400 33004KT P6SM BKN015=

USA.gov is the U.S. government's official web portal to all federal, state and local government web resources and services.